sensor_id;sensor_type;location;lat;lon;timestamp;P1;durP1;ratioP1;P2;durP2;ratioP2
10934;SDS011;5520;45.752;4.874;2023-12-20T00:01:27;33.70;;;19.43;;
10934;SDS011;5520;45.752;4.874;2023-12-20T00:03:55;35.83;;;20.20;;
10934;SDS011;5520;45.752;4.874;2023-12-20T00:06:23;32.23;;;19.23;;
10934;SDS011;5520;45.752;4.874;2023-12-20T00:08:53;30.67;;;18.43;;
10934;SDS011;5520;45.752;4.874;2023-12-20T00:11:21;32.37;;;19.43;;
10934;SDS011;5520;45.752;4.874;2023-12-20T00:13:49;33.50;;;19.33;;
10934;SDS011;5520;45.752;4.874;2023-12-20T00:16:17;36.50;;;18.00;;
10934;SDS011;5520;45.752;4.874;2023-12-20T00:18:46;37.13;;;19.73;;
10934;SDS011;5520;45.752;4.874;2023-12-20T00:21:14;34.07;;;18.00;;
10934;SDS011;5520;45.752;4.874;2023-12-20T00:23:42;36.23;;;18.33;;
10934;SDS011;5520;45.752;4.874;2023-12-20T00:26:12;32.40;;;18.40;;
10934;SDS011;5520;45.752;4.874;2023-12-20T00:28:40;33.83;;;19.43;;
10934;SDS011;5520;45.752;4.874;2023-12-20T00:31:09;30.23;;;18.53;;
10934;SDS011;5520;45.752;4.874;2023-12-20T00:33:37;37.37;;;19.37;;
10934;SDS011;5520;45.752;4.874;2023-12-20T00:36:06;35.90;;;20.20;;
10934;SDS011;5520;45.752;4.874;2023-12-20T00:38:35;35.47;;;20.37;;
10934;SDS011;5520;45.752;4.874;2023-12-20T00:41:03;32.40;;;18.17;;
10934;SDS011;5520;45.752;4.874;2023-12-20T00:43:33;35.63;;;19.63;;
10934;SDS011;5520;45.752;4.874;2023-12-20T00:46:01;36.07;;;18.57;;
10934;SDS011;5520;45.752;4.874;2023-12-20T00:48:29;31.67;;;17.97;;
10934;SDS011;5520;45.752;4.874;2023-12-20T00:50:57;36.23;;;17.67;;
10934;SDS011;5520;45.752;4.874;2023-12-20T00:53:26;29.47;;;17.97;;
10934;SDS011;5520;45.752;4.874;2023-12-20T00:55:54;35.00;;;18.40;;
10934;SDS011;5520;45.752;4.874;2023-12-20T00:58:22;29.73;;;17.13;;
10934;SDS011;5520;45.752;4.874;2023-12-20T01:00:51;33.57;;;18.90;;
10934;SDS011;5520;45.752;4.874;2023-12-20T01:03:20;32.23;;;17.77;;
10934;SDS011;5520;45.752;4.874;2023-12-20T01:05:49;31.07;;;18.63;;
10934;SDS011;5520;45.752;4.874;2023-12-20T01:08:17;32.60;;;18.20;;
10934;SDS011;5520;45.752;4.874;2023-12-20T01:10:45;30.03;;;16.97;;
10934;SDS011;5520;45.752;4.874;2023-12-20T01:13:13;32.47;;;17.03;;
10934;SDS011;5520;45.752;4.874;2023-12-20T01:15:42;28.07;;;15.57;;
10934;SDS011;5520;45.752;4.874;2023-12-20T01:18:11;28.37;;;16.53;;
10934;SDS011;5520;45.752;4.874;2023-12-20T01:20:39;27.27;;;16.17;;
10934;SDS011;5520;45.752;4.874;2023-12-20T01:23:08;27.60;;;15.93;;
10934;SDS011;5520;45.752;4.874;2023-12-20T01:25:36;25.63;;;16.13;;
10934;SDS011;5520;45.752;4.874;2023-12-20T01:28:04;33.00;;;16.70;;
10934;SDS011;5520;45.752;4.874;2023-12-20T01:30:32;30.13;;;16.37;;
10934;SDS011;5520;45.752;4.874;2023-12-20T01:33:00;28.87;;;16.10;;
10934;SDS011;5520;45.752;4.874;2023-12-20T01:35:30;27.57;;;16.77;;
10934;SDS011;5520;45.752;4.874;2023-12-20T01:37:58;23.20;;;14.67;;
10934;SDS011;5520;45.752;4.874;2023-12-20T01:40:26;30.10;;;16.07;;
10934;SDS011;5520;45.752;4.874;2023-12-20T01:42:58;25.00;;;15.90;;
10934;SDS011;5520;45.752;4.874;2023-12-20T01:45:26;27.27;;;14.90;;
10934;SDS011;5520;45.752;4.874;2023-12-20T01:47:54;26.87;;;16.20;;
10934;SDS011;5520;45.752;4.874;2023-12-20T01:50:23;28.83;;;15.10;;
10934;SDS011;5520;45.752;4.874;2023-12-20T01:52:52;26.70;;;15.00;;
10934;SDS011;5520;45.752;4.874;2023-12-20T01:55:24;23.00;;;15.40;;
10934;SDS011;5520;45.752;4.874;2023-12-20T01:57:53;26.67;;;16.03;;
10934;SDS011;5520;45.752;4.874;2023-12-20T02:00:21;29.27;;;16.37;;
10934;SDS011;5520;45.752;4.874;2023-12-20T02:02:50;27.43;;;14.37;;
10934;SDS011;5520;45.752;4.874;2023-12-20T02:05:18;26.63;;;15.03;;
10934;SDS011;5520;45.752;4.874;2023-12-20T02:07:47;24.53;;;14.17;;
10934;SDS011;5520;45.752;4.874;2023-12-20T02:10:18;29.97;;;15.03;;
10934;SDS011;5520;45.752;4.874;2023-12-20T02:12:46;27.80;;;15.43;;
10934;SDS011;5520;45.752;4.874;2023-12-20T02:15:14;23.83;;;15.23;;
10934;SDS011;5520;45.752;4.874;2023-12-20T02:17:42;25.33;;;14.77;;
10934;SDS011;5520;45.752;4.874;2023-12-20T02:20:11;24.87;;;14.87;;
10934;SDS011;5520;45.752;4.874;2023-12-20T02:22:41;22.50;;;13.93;;
10934;SDS011;5520;45.752;4.874;2023-12-20T02:25:09;25.20;;;14.63;;
10934;SDS011;5520;45.752;4.874;2023-12-20T02:27:37;26.30;;;14.83;;
10934;SDS011;5520;45.752;4.874;2023-12-20T02:30:06;25.80;;;14.67;;
10934;SDS011;5520;45.752;4.874;2023-12-20T02:32:34;25.23;;;14.83;;
10934;SDS011;5520;45.752;4.874;2023-12-20T02:35:03;22.13;;;14.23;;
10934;SDS011;5520;45.752;4.874;2023-12-20T02:37:32;24.17;;;14.13;;
10934;SDS011;5520;45.752;4.874;2023-12-20T02:40:02;25.80;;;14.70;;
10934;SDS011;5520;45.752;4.874;2023-12-20T02:42:31;26.00;;;15.33;;
10934;SDS011;5520;45.752;4.874;2023-12-20T02:44:59;21.37;;;13.93;;
10934;SDS011;5520;45.752;4.874;2023-12-20T02:47:27;22.57;;;14.80;;
10934;SDS011;5520;45.752;4.874;2023-12-20T02:49:56;23.47;;;13.77;;
10934;SDS011;5520;45.752;4.874;2023-12-20T02:52:25;21.20;;;13.87;;
10934;SDS011;5520;45.752;4.874;2023-12-20T02:54:53;25.00;;;15.00;;
10934;SDS011;5520;45.752;4.874;2023-12-20T02:57:22;23.97;;;15.70;;
10934;SDS011;5520;45.752;4.874;2023-12-20T02:59:50;23.40;;;15.47;;
10934;SDS011;5520;45.752;4.874;2023-12-20T03:02:19;25.63;;;14.77;;
10934;SDS011;5520;45.752;4.874;2023-12-20T03:04:47;22.10;;;13.33;;
10934;SDS011;5520;45.752;4.874;2023-12-20T03:07:15;20.60;;;13.00;;
10934;SDS011;5520;45.752;4.874;2023-12-20T03:09:44;29.00;;;13.37;;
10934;SDS011;5520;45.752;4.874;2023-12-20T03:12:33;29.00;;;14.63;;
10934;SDS011;5520;45.752;4.874;2023-12-20T03:15:01;26.77;;;15.10;;
10934;SDS011;5520;45.752;4.874;2023-12-20T03:17:29;21.20;;;13.57;;
10934;SDS011;5520;45.752;4.874;2023-12-20T03:19:58;22.47;;;14.70;;
10934;SDS011;5520;45.752;4.874;2023-12-20T03:22:26;25.53;;;15.50;;
10934;SDS011;5520;45.752;4.874;2023-12-20T03:24:54;21.67;;;15.30;;
10934;SDS011;5520;45.752;4.874;2023-12-20T03:27:22;25.97;;;15.97;;
10934;SDS011;5520;45.752;4.874;2023-12-20T03:29:52;26.03;;;15.73;;
10934;SDS011;5520;45.752;4.874;2023-12-20T03:32:20;22.97;;;14.93;;
10934;SDS011;5520;45.752;4.874;2023-12-20T03:34:48;26.80;;;15.30;;
10934;SDS011;5520;45.752;4.874;2023-12-20T03:37:16;20.70;;;13.67;;
10934;SDS011;5520;45.752;4.874;2023-12-20T03:39:44;26.60;;;15.00;;
10934;SDS011;5520;45.752;4.874;2023-12-20T03:42:13;22.80;;;14.73;;
10934;SDS011;5520;45.752;4.874;2023-12-20T03:44:41;24.90;;;14.80;;
10934;SDS011;5520;45.752;4.874;2023-12-20T03:47:10;26.23;;;15.50;;
10934;SDS011;5520;45.752;4.874;2023-12-20T03:49:38;24.90;;;15.20;;
10934;SDS011;5520;45.752;4.874;2023-12-20T03:52:06;23.30;;;14.73;;
10934;SDS011;5520;45.752;4.874;2023-12-20T03:54:35;25.67;;;14.30;;
10934;SDS011;5520;45.752;4.874;2023-12-20T03:57:03;26.33;;;15.87;;
10934;SDS011;5520;45.752;4.874;2023-12-20T03:59:34;25.30;;;15.77;;
10934;SDS011;5520;45.752;4.874;2023-12-20T04:02:02;23.67;;;15.03;;
10934;SDS011;5520;45.752;4.874;2023-12-20T04:04:32;25.17;;;16.27;;
10934;SDS011;5520;45.752;4.874;2023-12-20T04:07:00;26.87;;;15.37;;
10934;SDS011;5520;45.752;4.874;2023-12-20T04:09:28;28.67;;;16.23;;
10934;SDS011;5520;45.752;4.874;2023-12-20T04:11:56;24.00;;;15.07;;
10934;SDS011;5520;45.752;4.874;2023-12-20T04:14:25;26.90;;;15.53;;
10934;SDS011;5520;45.752;4.874;2023-12-20T04:16:53;24.97;;;15.93;;
10934;SDS011;5520;45.752;4.874;2023-12-20T04:19:21;26.20;;;16.03;;
10934;SDS011;5520;45.752;4.874;2023-12-20T04:21:51;25.00;;;15.43;;
10934;SDS011;5520;45.752;4.874;2023-12-20T04:24:19;23.23;;;14.93;;
10934;SDS011;5520;45.752;4.874;2023-12-20T04:26:47;25.73;;;15.70;;
10934;SDS011;5520;45.752;4.874;2023-12-20T04:29:15;25.43;;;14.70;;
10934;SDS011;5520;45.752;4.874;2023-12-20T04:31:43;27.30;;;16.47;;
10934;SDS011;5520;45.752;4.874;2023-12-20T04:34:12;26.47;;;15.03;;
10934;SDS011;5520;45.752;4.874;2023-12-20T04:36:40;24.33;;;14.13;;
10934;SDS011;5520;45.752;4.874;2023-12-20T04:39:11;25.57;;;16.43;;
10934;SDS011;5520;45.752;4.874;2023-12-20T04:41:39;23.50;;;15.60;;
10934;SDS011;5520;45.752;4.874;2023-12-20T04:44:07;29.50;;;16.20;;
10934;SDS011;5520;45.752;4.874;2023-12-20T04:46:35;28.90;;;17.17;;
10934;SDS011;5520;45.752;4.874;2023-12-20T04:49:03;29.07;;;16.90;;
10934;SDS011;5520;45.752;4.874;2023-12-20T04:51:32;29.07;;;17.40;;
10934;SDS011;5520;45.752;4.874;2023-12-20T04:54:01;28.67;;;17.33;;
10934;SDS011;5520;45.752;4.874;2023-12-20T04:56:30;27.77;;;16.90;;
10934;SDS011;5520;45.752;4.874;2023-12-20T04:58:58;31.90;;;17.17;;
10934;SDS011;5520;45.752;4.874;2023-12-20T05:01:27;26.00;;;16.47;;
10934;SDS011;5520;45.752;4.874;2023-12-20T05:03:56;25.57;;;16.83;;
10934;SDS011;5520;45.752;4.874;2023-12-20T05:06:27;24.23;;;15.27;;
10934;SDS011;5520;45.752;4.874;2023-12-20T05:08:56;23.40;;;14.90;;
10934;SDS011;5520;45.752;4.874;2023-12-20T05:11:24;21.03;;;14.23;;
10934;SDS011;5520;45.752;4.874;2023-12-20T05:13:54;27.00;;;16.20;;
10934;SDS011;5520;45.752;4.874;2023-12-20T05:16:22;23.00;;;14.70;;
10934;SDS011;5520;45.752;4.874;2023-12-20T05:18:51;25.57;;;16.47;;
10934;SDS011;5520;45.752;4.874;2023-12-20T05:21:20;25.00;;;15.80;;
10934;SDS011;5520;45.752;4.874;2023-12-20T05:23:49;27.47;;;17.13;;
10934;SDS011;5520;45.752;4.874;2023-12-20T05:26:17;23.80;;;15.23;;
10934;SDS011;5520;45.752;4.874;2023-12-20T05:28:45;27.37;;;16.17;;
10934;SDS011;5520;45.752;4.874;2023-12-20T05:31:14;25.77;;;15.63;;
10934;SDS011;5520;45.752;4.874;2023-12-20T05:33:43;21.93;;;15.10;;
10934;SDS011;5520;45.752;4.874;2023-12-20T05:36:11;25.10;;;14.93;;
10934;SDS011;5520;45.752;4.874;2023-12-20T05:38:41;25.63;;;15.33;;
10934;SDS011;5520;45.752;4.874;2023-12-20T05:41:10;25.23;;;15.23;;
10934;SDS011;5520;45.752;4.874;2023-12-20T05:43:38;23.23;;;15.03;;
10934;SDS011;5520;45.752;4.874;2023-12-20T05:46:07;22.73;;;14.37;;
10934;SDS011;5520;45.752;4.874;2023-12-20T05:48:36;21.03;;;14.77;;
10934;SDS011;5520;45.752;4.874;2023-12-20T05:51:04;23.33;;;14.53;;
10934;SDS011;5520;45.752;4.874;2023-12-20T05:53:33;22.47;;;13.73;;
10934;SDS011;5520;45.752;4.874;2023-12-20T05:56:01;26.30;;;14.40;;
10934;SDS011;5520;45.752;4.874;2023-12-20T05:58:29;23.90;;;14.77;;
10934;SDS011;5520;45.752;4.874;2023-12-20T06:00:58;19.90;;;12.87;;
10934;SDS011;5520;45.752;4.874;2023-12-20T06:03:26;21.03;;;14.07;;
10934;SDS011;5520;45.752;4.874;2023-12-20T06:05:56;20.97;;;13.80;;
10934;SDS011;5520;45.752;4.874;2023-12-20T06:08:41;21.60;;;13.60;;
10934;SDS011;5520;45.752;4.874;2023-12-20T06:11:10;21.63;;;13.53;;
10934;SDS011;5520;45.752;4.874;2023-12-20T06:13:39;20.07;;;13.20;;
10934;SDS011;5520;45.752;4.874;2023-12-20T06:16:07;21.40;;;13.70;;
10934;SDS011;5520;45.752;4.874;2023-12-20T06:18:36;22.20;;;13.97;;
10934;SDS011;5520;45.752;4.874;2023-12-20T06:21:05;23.07;;;13.70;;
10934;SDS011;5520;45.752;4.874;2023-12-20T06:23:35;22.63;;;14.03;;
10934;SDS011;5520;45.752;4.874;2023-12-20T06:26:03;22.27;;;13.47;;
10934;SDS011;5520;45.752;4.874;2023-12-20T06:28:31;18.03;;;12.73;;
10934;SDS011;5520;45.752;4.874;2023-12-20T06:30:59;19.93;;;13.10;;
10934;SDS011;5520;45.752;4.874;2023-12-20T06:33:28;21.30;;;14.33;;
10934;SDS011;5520;45.752;4.874;2023-12-20T06:35:57;21.40;;;14.13;;
10934;SDS011;5520;45.752;4.874;2023-12-20T06:38:27;22.60;;;13.07;;
10934;SDS011;5520;45.752;4.874;2023-12-20T06:40:55;25.03;;;13.93;;
10934;SDS011;5520;45.752;4.874;2023-12-20T06:43:24;23.00;;;14.37;;
10934;SDS011;5520;45.752;4.874;2023-12-20T06:46:11;20.73;;;13.20;;
10934;SDS011;5520;45.752;4.874;2023-12-20T06:48:41;20.40;;;13.53;;
10934;SDS011;5520;45.752;4.874;2023-12-20T06:51:12;23.60;;;14.00;;
10934;SDS011;5520;45.752;4.874;2023-12-20T06:53:42;20.73;;;14.37;;
10934;SDS011;5520;45.752;4.874;2023-12-20T06:56:10;20.50;;;13.30;;
10934;SDS011;5520;45.752;4.874;2023-12-20T06:58:44;21.77;;;14.20;;
10934;SDS011;5520;45.752;4.874;2023-12-20T07:01:12;23.00;;;14.30;;
10934;SDS011;5520;45.752;4.874;2023-12-20T07:03:40;18.93;;;12.87;;
10934;SDS011;5520;45.752;4.874;2023-12-20T07:06:09;20.93;;;13.20;;
10934;SDS011;5520;45.752;4.874;2023-12-20T07:08:37;19.53;;;13.17;;
10934;SDS011;5520;45.752;4.874;2023-12-20T07:11:06;21.63;;;14.63;;
10934;SDS011;5520;45.752;4.874;2023-12-20T07:13:34;23.80;;;15.13;;
10934;SDS011;5520;45.752;4.874;2023-12-20T07:16:03;24.80;;;15.43;;
10934;SDS011;5520;45.752;4.874;2023-12-20T07:18:31;23.07;;;15.50;;
10934;SDS011;5520;45.752;4.874;2023-12-20T07:20:59;21.20;;;14.00;;
10934;SDS011;5520;45.752;4.874;2023-12-20T07:23:27;19.63;;;12.97;;
10934;SDS011;5520;45.752;4.874;2023-12-20T07:25:55;21.03;;;13.23;;
10934;SDS011;5520;45.752;4.874;2023-12-20T07:28:25;20.63;;;13.60;;
10934;SDS011;5520;45.752;4.874;2023-12-20T07:30:53;20.73;;;13.40;;
10934;SDS011;5520;45.752;4.874;2023-12-20T07:33:28;19.63;;;13.10;;
10934;SDS011;5520;45.752;4.874;2023-12-20T07:36:05;18.13;;;12.87;;
10934;SDS011;5520;45.752;4.874;2023-12-20T07:38:35;21.40;;;13.53;;
10934;SDS011;5520;45.752;4.874;2023-12-20T07:41:05;16.37;;;12.70;;
10934;SDS011;5520;45.752;4.874;2023-12-20T07:43:34;20.57;;;13.60;;
10934;SDS011;5520;45.752;4.874;2023-12-20T07:46:05;19.10;;;13.33;;
10934;SDS011;5520;45.752;4.874;2023-12-20T07:48:34;22.70;;;14.17;;
10934;SDS011;5520;45.752;4.874;2023-12-20T07:51:03;23.60;;;15.63;;
10934;SDS011;5520;45.752;4.874;2023-12-20T07:53:32;20.37;;;14.13;;
10934;SDS011;5520;45.752;4.874;2023-12-20T07:56:16;19.50;;;12.50;;
10934;SDS011;5520;45.752;4.874;2023-12-20T07:58:47;19.17;;;12.47;;
10934;SDS011;5520;45.752;4.874;2023-12-20T08:01:22;20.83;;;14.10;;
10934;SDS011;5520;45.752;4.874;2023-12-20T08:03:50;23.47;;;14.10;;
10934;SDS011;5520;45.752;4.874;2023-12-20T08:06:22;19.60;;;13.37;;
10934;SDS011;5520;45.752;4.874;2023-12-20T08:08:50;19.97;;;13.30;;
10934;SDS011;5520;45.752;4.874;2023-12-20T08:11:28;18.13;;;13.33;;
10934;SDS011;5520;45.752;4.874;2023-12-20T08:13:57;23.43;;;14.40;;
10934;SDS011;5520;45.752;4.874;2023-12-20T08:16:26;23.77;;;14.73;;
10934;SDS011;5520;45.752;4.874;2023-12-20T08:18:54;22.83;;;14.67;;
10934;SDS011;5520;45.752;4.874;2023-12-20T08:21:22;19.60;;;13.10;;
10934;SDS011;5520;45.752;4.874;2023-12-20T08:24:04;26.30;;;14.00;;
10934;SDS011;5520;45.752;4.874;2023-12-20T08:26:38;21.93;;;13.07;;
10934;SDS011;5520;45.752;4.874;2023-12-20T08:29:11;16.00;;;10.57;;
10934;SDS011;5520;45.752;4.874;2023-12-20T08:31:41;17.27;;;10.43;;
10934;SDS011;5520;45.752;4.874;2023-12-20T08:34:10;14.40;;;9.60;;
10934;SDS011;5520;45.752;4.874;2023-12-20T08:36:41;11.77;;;9.07;;
10934;SDS011;5520;45.752;4.874;2023-12-20T08:39:09;12.20;;;7.93;;
10934;SDS011;5520;45.752;4.874;2023-12-20T08:41:38;12.13;;;8.90;;
10934;SDS011;5520;45.752;4.874;2023-12-20T08:44:06;11.50;;;7.13;;
10934;SDS011;5520;45.752;4.874;2023-12-20T08:46:36;13.07;;;8.33;;
10934;SDS011;5520;45.752;4.874;2023-12-20T08:49:06;14.13;;;8.53;;
10934;SDS011;5520;45.752;4.874;2023-12-20T08:51:36;10.57;;;7.13;;
10934;SDS011;5520;45.752;4.874;2023-12-20T08:54:08;15.30;;;8.23;;
10934;SDS011;5520;45.752;4.874;2023-12-20T08:56:37;9.07;;;7.37;;
10934;SDS011;5520;45.752;4.874;2023-12-20T08:59:07;11.27;;;6.97;;
10934;SDS011;5520;45.752;4.874;2023-12-20T09:01:37;16.47;;;7.90;;
10934;SDS011;5520;45.752;4.874;2023-12-20T09:04:08;9.77;;;7.10;;
10934;SDS011;5520;45.752;4.874;2023-12-20T09:06:36;12.60;;;7.03;;
10934;SDS011;5520;45.752;4.874;2023-12-20T09:09:05;10.83;;;7.07;;
10934;SDS011;5520;45.752;4.874;2023-12-20T09:11:35;10.83;;;7.70;;
10934;SDS011;5520;45.752;4.874;2023-12-20T09:14:04;11.97;;;8.20;;
10934;SDS011;5520;45.752;4.874;2023-12-20T09:16:32;12.87;;;7.53;;
10934;SDS011;5520;45.752;4.874;2023-12-20T09:19:01;10.83;;;7.90;;
10934;SDS011;5520;45.752;4.874;2023-12-20T09:21:30;12.93;;;7.67;;
10934;SDS011;5520;45.752;4.874;2023-12-20T09:23:58;11.27;;;7.57;;
10934;SDS011;5520;45.752;4.874;2023-12-20T09:26:26;7.80;;;7.00;;
10934;SDS011;5520;45.752;4.874;2023-12-20T09:28:54;11.17;;;7.30;;
10934;SDS011;5520;45.752;4.874;2023-12-20T09:31:22;10.30;;;7.83;;
10934;SDS011;5520;45.752;4.874;2023-12-20T09:33:50;11.57;;;7.53;;
10934;SDS011;5520;45.752;4.874;2023-12-20T09:36:20;10.03;;;7.73;;
10934;SDS011;5520;45.752;4.874;2023-12-20T09:38:48;11.50;;;7.80;;
10934;SDS011;5520;45.752;4.874;2023-12-20T09:41:17;11.30;;;6.73;;
10934;SDS011;5520;45.752;4.874;2023-12-20T09:43:46;9.50;;;7.43;;
10934;SDS011;5520;45.752;4.874;2023-12-20T09:46:16;9.53;;;6.67;;
10934;SDS011;5520;45.752;4.874;2023-12-20T09:48:49;10.70;;;7.33;;
10934;SDS011;5520;45.752;4.874;2023-12-20T09:51:17;11.33;;;7.23;;
10934;SDS011;5520;45.752;4.874;2023-12-20T09:53:46;10.00;;;6.40;;
10934;SDS011;5520;45.752;4.874;2023-12-20T09:56:15;11.20;;;7.00;;
10934;SDS011;5520;45.752;4.874;2023-12-20T09:58:44;11.27;;;6.87;;
10934;SDS011;5520;45.752;4.874;2023-12-20T10:01:12;11.87;;;7.63;;
10934;SDS011;5520;45.752;4.874;2023-12-20T10:03:40;11.60;;;7.13;;
10934;SDS011;5520;45.752;4.874;2023-12-20T10:06:09;8.67;;;6.43;;
10934;SDS011;5520;45.752;4.874;2023-12-20T10:08:38;9.90;;;6.47;;
